Time;durP1;ratioP1;P1;durP2;ratioP2;P2;SDS_P1;SDS_P2;PMS_P1;PMS_P2;Temp;Humidity;BMP_temperature;BMP_pressure;BME280_temperature;BME280_humidity;BME280_pressure;Samples;Min_cycle;Max_cycle;Signal;HPM_P1;HPM_P2
2022/06/13 00:00:53;;;;;;;11.68;10.05;;;;;;;11.86;100.00;102044.63;5224320;28;20025;-59
2022/06/13 00:03:23;;;;;;;11.40;7.22;;;;;;;11.86;100.00;102050.84;5224158;28;20466;-62
2022/06/13 00:05:54;;;;;;;10.07;9.18;;;;;;;11.70;100.00;102021.75;5223760;28;20033;-61
2022/06/13 00:08:25;;;;;;;8.63;7.80;;;;;;;11.83;100.00;102049.47;5224256;28;20028;-59
2022/06/13 00:10:56;;;;;;;7.78;7.18;;;;;;;11.78;100.00;102040.41;5224234;28;20044;-62
2022/06/13 00:13:26;;;;;;;8.88;8.05;;;;;;;11.73;100.00;102037.53;5224243;28;20017;-62
2022/06/13 00:16:00;;;;;;;11.75;7.63;;;;;;;11.77;100.00;102034.16;5224253;28;20516;-61
2022/06/13 00:18:30;;;;;;;9.05;8.30;;;;;;;11.74;100.00;102028.34;5225742;28;20074;-61
2022/06/13 00:21:01;;;;;;;7.00;6.50;;;;;;;11.69;100.00;102031.75;5224134;28;20021;-62
2022/06/13 00:23:36;;;;;;;7.80;7.13;;;;;;;11.55;100.00;102016.00;5223926;28;20036;-61
2022/06/13 00:26:07;;;;;;;8.60;7.28;;;;;;;11.49;100.00;102012.34;5223999;28;20063;-62
2022/06/13 00:28:37;;;;;;;11.10;7.93;;;;;;;11.46;100.00;102015.53;5224271;28;20480;-60
2022/06/13 00:31:08;;;;;;;8.35;7.75;;;;;;;11.52;100.00;102021.88;5224075;28;20033;-61
2022/06/13 00:33:38;;;;;;;8.32;7.68;;;;;;;11.35;100.00;101981.97;5223620;28;20042;-60
2022/06/13 00:36:09;;;;;;;8.48;7.78;;;;;;;11.67;100.00;102027.66;5224100;28;20024;-62
2022/06/13 00:38:40;;;;;;;8.65;7.00;;;;;;;11.76;100.00;102013.56;5206481;28;20037;-63
2022/06/13 00:41:14;;;;;;;10.43;9.50;;;;;;;11.81;100.00;102007.44;5224278;28;20031;-61
2022/06/13 00:43:46;;;;;;;11.07;7.82;;;;;;;11.96;100.00;102015.91;5223858;28;20028;-61
2022/06/13 00:46:23;;;;;;;9.15;8.07;;;;;;;12.10;100.00;102020.03;5223502;28;20033;-60
2022/06/13 00:49:01;;;;;;;9.38;8.50;;;;;;;12.19;100.00;102017.75;5224193;28;20029;-64
2022/06/13 00:51:36;;;;;;;11.35;7.55;;;;;;;12.26;100.00;102014.91;5224136;28;20029;-64
2022/06/13 00:54:07;;;;;;;14.57;6.85;;;;;;;12.36;100.00;102018.66;5223506;28;20105;-63
2022/06/13 00:56:38;;;;;;;9.30;7.63;;;;;;;12.42;100.00;102022.28;5223898;28;20121;-60
2022/06/13 00:59:15;;;;;;;5.85;5.55;;;;;;;12.50;100.00;102025.44;5223885;28;20024;-63
2022/06/13 01:01:46;;;;;;;11.82;8.65;;;;;;;12.54;100.00;102033.91;5224152;28;20028;-62
2022/06/13 01:04:16;;;;;;;14.38;8.45;;;;;;;12.38;100.00;101999.47;5223412;28;20029;-63
2022/06/13 01:06:49;;;;;;;8.52;6.47;;;;;;;12.54;100.00;102039.34;5271232;23;20061;-81
2022/06/13 01:11:16;;;;;;;7.43;6.78;;;;;;;12.57;100.00;102028.03;5292095;28;20031;-81
2022/06/13 01:12:14;;;;;;;9.75;8.30;;;;;;;12.61;100.00;102029.19;5292595;28;20047;-80
2022/06/13 01:14:44;;;;;;;11.40;6.63;;;;;;;12.56;100.00;102030.97;5291907;28;20024;-80
2022/06/13 01:17:17;;;;;;;10.07;7.10;;;;;;;12.52;100.00;102028.75;5294433;28;20029;-81
2022/06/13 01:20:13;;;;;;;9.35;8.63;;;;;;;12.54;100.00;102022.25;5294814;28;20481;-81
2022/06/13 01:23:30;;;;;;;20.50;7.35;;;;;;;12.53;100.00;102026.84;5294180;28;20027;-80
2022/06/13 01:26:38;;;;;;;7.68;7.00;;;;;;;12.47;100.00;102015.09;5294453;28;20031;-81
2022/06/13 01:29:21;;;;;;;9.82;7.07;;;;;;;12.58;100.00;102024.25;5294393;28;20116;-80
2022/06/13 01:32:23;;;;;;;12.57;8.23;;;;;;;12.60;100.00;102022.13;5293882;28;20503;-81
2022/06/13 01:34:59;;;;;;;6.93;6.32;;;;;;;12.64;100.00;102009.75;5294282;28;20012;-81
2022/06/13 01:37:47;;;;;;;9.27;7.18;;;;;;;12.66;100.00;102009.50;5295609;28;20099;-81
2022/06/13 01:40:17;;;;;;;7.88;6.53;;;;;;;12.67;100.00;102011.16;5293977;28;20053;-81
2022/06/13 01:43:30;;;;;;;8.32;7.57;;;;;;;12.66;100.00;102015.75;5295112;28;20020;-81
2022/06/13 01:46:21;;;;;;;8.73;6.88;;;;;;;12.63;100.00;102013.50;5294802;28;20049;-80
2022/06/13 01:49:25;;;;;;;7.45;6.95;;;;;;;12.60;100.00;101997.72;5295277;28;20038;-80
2022/06/13 01:51:55;;;;;;;7.03;6.55;;;;;;;12.73;100.00;102008.28;5295255;28;20012;-81
2022/06/13 01:54:50;;;;;;;7.85;7.07;;;;;;;12.73;100.00;102016.41;5294981;28;20045;-81
2022/06/13 01:57:44;;;;;;;7.97;7.32;;;;;;;12.75;100.00;102008.03;5295065;28;20389;-81
2022/06/13 02:00:19;;;;;;;7.55;6.95;;;;;;;12.72;100.00;102017.47;5295079;28;20043;-81
2022/06/13 02:02:56;;;;;;;11.23;6.72;;;;;;;12.78;100.00;102019.22;5295299;28;20065;-80
2022/06/13 02:05:36;;;;;;;7.05;6.45;;;;;;;12.64;100.00;101993.47;5292884;28;20076;-80
2022/06/13 02:08:16;;;;;;;15.95;7.85;;;;;;;12.82;100.00;102009.53;5294745;28;20026;-81
2022/06/13 02:10:54;;;;;;;18.15;8.32;;;;;;;12.87;100.00;102008.81;5292883;28;20027;-80
2022/06/13 02:13:39;;;;;;;16.40;8.57;;;;;;;12.74;100.00;101976.56;5294345;28;20034;-81
2022/06/13 02:16:21;;;;;;;9.68;7.88;;;;;;;12.98;100.00;102009.81;5294381;28;20027;-81
2022/06/13 02:19:13;;;;;;;8.38;7.65;;;;;;;12.72;100.00;101963.25;5293973;28;20043;-80
2022/06/13 02:21:51;;;;;;;10.00;6.95;;;;;;;12.99;100.00;102008.75;5294725;28;20023;-81
2022/06/13 02:24:26;;;;;;;9.20;8.30;;;;;;;12.94;100.00;102003.25;5294377;28;20023;-80
2022/06/13 02:26:59;;;;;;;12.23;7.35;;;;;;;12.97;100.00;102021.75;5292744;28;20026;-81
2022/06/13 02:29:35;;;;;;;6.88;6.25;;;;;;;12.94;100.00;102014.09;5293648;28;20087;-81
2022/06/13 02:32:14;;;;;;;6.97;6.38;;;;;;;12.87;100.00;101999.84;5293777;28;20035;-80
2022/06/13 02:34:54;;;;;;;9.10;8.32;;;;;;;12.92;100.00;102008.09;5294579;28;20026;-80
2022/06/13 02:37:31;;;;;;;16.80;7.35;;;;;;;12.81;100.00;101980.78;5294181;28;20012;-81
2022/06/13 02:40:15;;;;;;;8.23;7.53;;;;;;;12.97;100.00;102003.59;5293600;28;20028;-80
2022/06/13 02:42:53;;;;;;;6.68;6.18;;;;;;;12.84;100.00;101983.00;5292313;28;20049;-80
2022/06/13 02:45:39;;;;;;;7.88;7.00;;;;;;;12.93;100.00;101988.88;5292915;28;20034;-80
2022/06/13 02:48:09;;;;;;;7.50;5.53;;;;;;;13.08;100.00;102005.38;5293100;28;20031;-80
2022/06/13 02:50:42;;;;;;;6.13;5.63;;;;;;;13.15;100.00;102010.66;5293885;28;20028;-80
2022/06/13 02:53:27;;;;;;;9.15;6.57;;;;;;;13.15;100.00;101997.97;5293902;28;20404;-80
2022/06/13 02:56:00;;;;;;;8.80;7.93;;;;;;;13.18;100.00;102007.50;5293380;28;20016;-80
2022/06/13 02:58:30;;;;;;;10.90;7.03;;;;;;;13.24;100.00;102011.94;5293907;28;20045;-80
2022/06/13 03:01:18;;;;;;;14.85;8.50;;;;;;;13.26;100.00;102009.81;5294088;28;20015;-81
2022/06/13 03:04:17;;;;;;;7.15;6.60;;;;;;;13.29;100.00;102017.44;5293471;28;20023;-80
2022/06/13 03:06:50;;;;;;;7.67;6.60;;;;;;;13.29;100.00;102014.72;5293631;28;20503;-80
2022/06/13 03:09:30;;;;;;;12.02;8.32;;;;;;;13.29;100.00;102009.28;5293914;28;20031;-80
2022/06/13 03:12:10;;;;;;;10.02;7.35;;;;;;;13.30;100.00;102016.38;5294224;28;20026;-82
2022/06/13 03:15:11;;;;;;;9.65;5.97;;;;;;;13.31;100.00;102018.00;5293432;28;20020;-81
2022/06/13 03:17:53;;;;;;;9.70;8.68;;;;;;;13.31;100.00;102015.28;5294142;28;20035;-80
2022/06/13 03:20:31;;;;;;;13.30;7.97;;;;;;;13.32;100.00;102008.81;5293983;28;20102;-84
2022/06/13 03:23:23;;;;;;;8.60;7.72;;;;;;;13.43;100.00;102013.34;5293413;28;20028;-80
2022/06/13 03:26:01;;;;;;;10.88;6.95;;;;;;;13.27;100.00;101991.66;5294527;28;20039;-81
2022/06/13 03:29:02;;;;;;;12.75;7.68;;;;;;;13.41;100.00;102011.94;5294554;28;20020;-82
2022/06/13 03:31:38;;;;;;;10.75;6.30;;;;;;;13.34;100.00;102011.28;5294308;28;20443;-82
2022/06/13 03:34:23;;;;;;;10.52;7.57;;;;;;;13.31;100.00;102017.19;5294401;28;20147;-81
2022/06/13 03:37:10;;;;;;;10.55;7.43;;;;;;;13.07;100.00;101995.59;5294076;28;20019;-82
2022/06/13 03:39:48;;;;;;;9.30;7.32;;;;;;;13.05;100.00;102005.06;5292198;28;20015;-82
2022/06/13 03:42:39;;;;;;;7.97;7.10;;;;;;;13.02;100.00;102021.81;5292798;28;20023;-81
2022/06/13 03:45:18;;;;;;;16.33;9.23;;;;;;;12.81;100.00;101999.75;5293437;28;20413;-81
2022/06/13 03:48:03;;;;;;;9.73;6.85;;;;;;;12.91;100.00;102025.41;5298309;28;20047;-82
2022/06/13 03:50:56;;;;;;;8.27;7.57;;;;;;;13.04;100.00;102033.25;5295063;28;20038;-80
2022/06/13 03:53:32;;;;;;;12.35;6.53;;;;;;;13.00;100.00;102016.63;5297973;28;20029;-81
2022/06/13 03:56:17;;;;;;;10.60;8.07;;;;;;;13.24;100.00;102030.94;5296525;28;20027;-82
2022/06/13 03:59:20;;;;;;;11.73;8.25;;;;;;;13.29;100.00;102031.00;5297563;28;20051;-81
2022/06/13 04:01:58;;;;;;;9.70;6.85;;;;;;;13.28;100.00;102037.50;5294194;28;20409;-83
2022/06/13 04:04:36;;;;;;;8.20;6.95;;;;;;;13.20;100.00;102032.50;5296405;28;20023;-81
2022/06/13 04:07:07;;;;;;;14.90;9.57;;;;;;;12.97;100.00;102000.88;5295597;28;20024;-81
2022/06/13 04:09:43;;;;;;;9.50;8.80;;;;;;;13.08;100.00;102034.41;5301036;28;20111;-80
2022/06/13 04:12:16;;;;;;;8.93;8.00;;;;;;;13.05;100.00;102038.41;5300308;28;20028;-80
2022/06/13 04:15:05;;;;;;;8.05;7.22;;;;;;;13.00;100.00;102043.75;5299200;28;20028;-81
2022/06/13 04:17:41;;;;;;;15.38;8.75;;;;;;;12.96;100.00;102047.22;5297887;28;20080;-80
2022/06/13 04:20:14;;;;;;;9.00;8.27;;;;;;;12.94;100.00;102041.19;5296363;28;20023;-82
2022/06/13 04:22:44;;;;;;;9.20;7.43;;;;;;;12.95;100.00;102045.56;5299556;28;20027;-82
2022/06/13 04:25:21;;;;;;;10.77;9.02;;;;;;;13.05;100.00;102045.72;5297979;28;20016;-82
2022/06/13 04:28:42;;;;;;;10.80;8.68;;;;;;;13.23;100.00;102048.28;5298651;28;20634;-82
2022/06/13 04:31:18;;;;;;;10.82;8.00;;;;;;;13.47;100.00;102049.78;5241858;28;20043;-82
2022/06/13 04:33:53;;;;;;;11.07;6.90;;;;;;;13.51;100.00;102036.53;5302511;28;20035;-82
2022/06/13 04:36:25;;;;;;;8.05;7.07;;;;;;;13.65;100.00;102050.59;5301431;28;20030;-82
2022/06/13 04:38:59;;;;;;;14.00;7.82;;;;;;;13.67;100.00;102056.59;5302095;28;20016;-82
2022/06/13 04:41:32;;;;;;;7.75;6.75;;;;;;;13.61;100.00;102027.72;5302615;28;20027;-82
2022/06/13 04:44:05;;;;;;;12.38;7.85;;;;;;;13.97;100.00;102054.34;5299272;28;20122;-82
2022/06/13 04:46:37;;;;;;;12.15;7.35;;;;;;;14.06;100.00;102036.56;5299816;28;20087;-81
2022/06/13 04:49:28;;;;;;;8.48;6.75;;;;;;;14.15;100.00;102064.91;5302360;28;20019;-81
2022/06/13 04:52:05;;;;;;;11.75;8.38;;;;;;;14.11;100.00;102081.97;5294717;28;20023;-81
2022/06/13 04:54:52;;;;;;;11.25;8.65;;;;;;;14.00;100.00;102082.91;5285702;28;20048;-81
2022/06/13 04:57:23;;;;;;;7.43;6.70;;;;;;;14.00;100.00;102077.47;5289061;28;20024;-81
2022/06/13 04:59:54;;;;;;;10.95;8.18;;;;;;;14.03;100.00;102069.66;5300137;28;20035;-81
2022/06/13 05:02:43;;;;;;;12.73;8.15;;;;;;;14.11;100.00;102069.22;5282642;28;20053;-81
2022/06/13 05:05:27;;;;;;;12.55;9.07;;;;;;;13.94;100.00;102022.25;5284719;28;20059;-81
2022/06/13 05:07:58;;;;;;;20.05;9.95;;;;;;;14.33;100.00;102065.72;5284134;28;20024;-80
2022/06/13 05:10:31;;;;;;;15.27;8.32;;;;;;;14.31;100.00;102060.53;5285230;28;20020;-80
2022/06/13 05:13:02;;;;;;;9.38;7.90;;;;;;;14.40;100.00;102055.47;5284160;28;20058;-80
2022/06/13 05:15:33;;;;;;;8.27;7.57;;;;;;;14.48;100.00;102068.63;5283287;28;20024;-80
2022/06/13 05:18:25;;;;;;;8.63;7.68;;;;;;;14.63;100.00;102097.94;5293648;28;20011;-80
2022/06/13 05:21:02;;;;;;;10.32;8.93;;;;;;;14.70;100.00;102093.94;5305363;28;20028;-80
2022/06/13 05:24:03;;;;;;;9.90;8.98;;;;;;;14.81;100.00;102100.31;5307625;28;20146;-81
2022/06/13 05:26:34;;;;;;;11.02;9.70;;;;;;;14.72;100.00;102075.50;5302854;28;20029;-80
2022/06/13 05:29:04;;;;;;;13.13;7.20;;;;;;;14.92;100.00;102083.06;5307199;28;20038;-81
2022/06/13 05:31:36;;;;;;;7.30;6.60;;;;;;;15.15;100.00;102101.78;5304625;28;20326;-80
2022/06/13 05:34:33;;;;;;;11.55;8.20;;;;;;;15.29;100.00;102109.56;5305557;28;20033;-81
2022/06/13 05:37:05;;;;;;;10.35;8.55;;;;;;;15.15;100.00;102054.72;5304833;28;20071;-80
2022/06/13 05:39:36;;;;;;;8.07;7.53;;;;;;;15.69;100.00;102109.94;5303529;28;20023;-80
2022/06/13 05:42:07;;;;;;;20.25;7.50;;;;;;;15.76;100.00;102107.00;5303965;28;20034;-79
2022/06/13 05:44:38;;;;;;;15.00;6.88;;;;;;;15.73;100.00;102105.63;5302797;28;20023;-79
2022/06/13 05:47:15;;;;;;;7.18;6.38;;;;;;;15.75;100.00;102124.44;5302772;28;20029;-79
2022/06/13 05:49:49;;;;;;;15.52;7.05;;;;;;;15.67;100.00;102108.56;5305112;28;20499;-79
2022/06/13 05:52:19;;;;;;;11.05;7.80;;;;;;;15.71;100.00;102085.19;5303678;28;20019;-79
2022/06/13 05:54:49;;;;;;;9.85;6.03;;;;;;;16.22;100.00;102127.22;5302847;28;20035;-80
2022/06/13 05:57:20;;;;;;;7.78;5.22;;;;;;;16.22;100.00;102121.78;5304033;28;20458;-79
2022/06/13 05:59:50;;;;;;;10.98;6.82;;;;;;;15.96;100.00;102088.09;5302996;28;20047;-79
2022/06/13 06:02:24;;;;;;;10.10;5.32;;;;;;;16.25;100.00;102131.34;5303654;28;20019;-80
2022/06/13 06:04:54;;;;;;;13.57;4.65;;;;;;;16.32;100.00;102131.94;5305396;28;20030;-80
2022/06/13 06:07:25;;;;;;;10.75;5.63;;;;;;;16.33;100.00;102130.84;5304392;28;20023;-80
2022/06/13 06:09:55;;;;;;;10.82;6.82;;;;;;;16.32;100.00;102137.38;5304619;28;20053;-81
2022/06/13 06:12:26;;;;;;;6.07;5.57;;;;;;;16.35;100.00;102145.03;5303529;28;20020;-81
2022/06/13 06:14:56;;;;;;;9.07;5.28;;;;;;;16.38;100.00;102149.97;5303496;28;20027;-81
2022/06/13 06:17:27;;;;;;;8.45;6.55;;;;;;;16.23;100.00;102130.78;5303856;28;20016;-80
2022/06/13 06:19:57;;;;;;;14.30;6.20;;;;;;;16.10;100.00;102116.53;5302069;28;20019;-80
2022/06/13 06:22:27;;;;;;;5.88;5.10;;;;;;;16.33;100.00;102158.09;5303717;28;20055;-80
2022/06/13 06:24:58;;;;;;;9.85;6.20;;;;;;;16.31;100.00;102157.53;5303342;28;20019;-80
2022/06/13 06:27:28;;;;;;;10.25;5.30;;;;;;;16.27;100.00;102143.63;5303763;28;20015;-80
2022/06/13 06:29:59;;;;;;;11.02;5.13;;;;;;;16.40;100.00;102153.25;5303548;28;20027;-80
2022/06/13 06:32:29;;;;;;;8.68;6.38;;;;;;;16.51;100.00;102155.75;5304399;28;20034;-81
2022/06/13 06:34:59;;;;;;;4.32;3.92;;;;;;;16.69;100.00;102167.34;5303186;28;20038;-80
2022/06/13 06:37:30;;;;;;;10.85;4.88;;;;;;;16.62;100.00;102151.19;5303320;28;20026;-79
2022/06/13 06:40:00;;;;;;;5.65;5.25;;;;;;;16.71;100.00;102157.81;5303045;28;20053;-80
2022/06/13 06:42:31;;;;;;;3.88;3.58;;;;;;;16.73;100.00;102163.84;5318653;27;20055;-80
2022/06/13 06:45:01;;;;;;;6.82;4.28;;;;;;;16.73;100.00;102154.84;5301816;28;20031;-81
2022/06/13 06:47:31;;;;;;;4.53;4.20;;;;;;;16.72;100.00;102158.66;5303281;28;20109;-80
2022/06/13 06:50:03;;;;;;;6.07;4.45;;;;;;;16.37;100.00;102116.44;5303526;28;20031;-81
2022/06/13 06:52:33;;;;;;;10.85;5.50;;;;;;;16.47;100.00;102167.44;5303767;28;20055;-81
2022/06/13 07:00:45;;;;;;;3.88;3.55;;;;;;;17.35;100.00;102143.00;5304110;28;20055;-80
2022/06/13 07:03:16;;;;;;;5.80;3.92;;;;;;;18.01;100.00;102173.97;5301585;28;20035;-80
2022/06/13 07:08:19;;;;;;;4.20;3.85;;;;;;;18.47;100.00;102176.66;5302440;27;20084;-78
2022/06/13 07:10:50;;;;;;;3.55;3.28;;;;;;;18.65;100.00;102186.22;5312719;27;20434;-78
2022/06/13 07:13:21;;;;;;;10.98;4.47;;;;;;;18.71;100.00;102177.72;5312141;27;20492;-79
2022/06/13 07:15:52;;;;;;;5.38;4.03;;;;;;;18.63;100.00;102153.66;5311803;27;20072;-79
2022/06/13 07:18:22;;;;;;;4.55;3.67;;;;;;;18.86;100.00;102182.31;5296114;22;20472;-63
2022/06/13 07:20:53;;;;;;;3.40;3.20;;;;;;;18.75;100.00;102184.28;5266879;28;20038;-62
2022/06/13 07:23:23;;;;;;;6.80;4.15;;;;;;;18.69;100.00;102173.63;5267262;28;20479;-63
2022/06/13 07:25:54;;;;;;;3.65;3.35;;;;;;;18.65;100.00;102178.81;5266481;28;20024;-62
2022/06/13 07:28:58;;;;;;;3.55;3.25;;;;;;;18.86;100.00;102185.88;5266794;28;20022;-62
2022/06/13 07:31:32;;;;;;;6.40;3.95;;;;;;;19.21;100.00;102192.28;5268434;28;20031;-62
2022/06/13 07:34:02;;;;;;;2.60;2.40;;;;;;;19.32;100.00;102188.41;5267272;28;20483;-62
2022/06/13 07:36:33;;;;;;;6.70;4.32;;;;;;;19.38;100.00;102197.41;5267182;28;20165;-61
2022/06/13 07:39:04;;;;;;;4.78;4.38;;;;;;;19.56;100.00;102199.53;5268272;28;20016;-61
2022/06/13 07:41:38;;;;;;;3.45;3.15;;;;;;;19.98;100.00;102196.19;5268405;28;20122;-61
2022/06/13 07:44:16;;;;;;;8.23;3.83;;;;;;;20.53;100.00;102199.53;5268068;28;20035;-61
2022/06/13 07:46:48;;;;;;;3.28;3.08;;;;;;;20.65;100.00;102199.16;5268364;28;20035;-61
2022/06/13 07:52:11;;;;;;;8.98;3.63;;;;;;;20.89;100.00;102202.72;5267593;28;20572;-60
2022/06/13 07:54:41;;;;;;;5.18;3.30;;;;;;;20.52;100.00;102200.66;5267492;28;20031;-61
2022/06/13 08:00:39;;;;;;;3.28;3.08;;;;;;;21.11;100.00;102207.66;5268441;28;20166;-61
2022/06/13 08:03:17;;;;;;;4.20;3.35;;;;;;;20.99;96.66;102207.28;5284130;28;20064;-61
2022/06/13 08:05:48;;;;;;;7.85;2.55;;;;;;;20.94;99.36;102216.38;5268295;28;20502;-61
2022/06/13 08:08:18;;;;;;;4.00;3.35;;;;;;;20.62;95.87;102228.00;5268657;28;20024;-61
2022/06/13 08:10:51;;;;;;;3.13;2.92;;;;;;;20.37;95.18;102209.88;5268276;28;20028;-60
2022/06/13 08:13:23;;;;;;;6.65;3.92;;;;;;;20.21;95.09;102219.31;5267582;28;20073;-60
2022/06/13 08:15:53;;;;;;;3.72;2.65;;;;;;;20.25;96.38;102212.13;5284468;28;20027;-61
2022/06/13 08:18:24;;;;;;;3.40;2.47;;;;;;;20.34;99.37;102232.38;5267924;28;20032;-62
2022/06/13 08:21:28;;;;;;;3.50;2.42;;;;;;;20.26;97.69;102230.22;5266931;28;20392;-61
2022/06/13 08:24:04;;;;;;;11.20;4.10;;;;;;;19.89;96.83;102236.31;5265304;28;20024;-62
2022/06/13 08:26:35;;;;;;;3.40;2.35;;;;;;;19.65;97.93;102246.31;5269360;28;20098;-62
2022/06/13 08:29:05;;;;;;;4.57;2.53;;;;;;;19.49;100.00;102243.66;5271793;28;20085;-62
2022/06/13 08:31:36;;;;;;;6.88;4.10;;;;;;;19.35;100.00;102237.13;5271347;28;20020;-63
2022/06/13 08:37:34;;;;;;;3.35;3.00;;;;;;;19.08;100.00;102247.66;5275411;28;20035;-63
2022/06/13 08:40:34;;;;;;;8.38;3.47;;;;;;;18.98;100.00;102262.22;5274145;28;20028;-61
2022/06/13 08:43:19;;;;;;;3.03;2.83;;;;;;;19.11;100.00;102256.13;5271419;28;20443;-62
2022/06/13 08:45:58;;;;;;;5.97;4.25;;;;;;;19.42;100.00;102259.56;5271199;28;20133;-62
2022/06/13 08:49:20;;;;;;;6.72;3.83;;;;;;;19.93;100.00;102259.28;5271055;28;20020;-62
2022/06/13 08:52:25;;;;;;;4.03;3.83;;;;;;;20.20;100.00;102259.66;5238628;28;20040;-62
2022/06/13 08:55:10;;;;;;;5.30;3.22;;;;;;;20.18;100.00;102261.88;5272261;28;20123;-63
2022/06/13 08:58:11;;;;;;;3.85;3.47;;;;;;;20.13;100.00;102259.16;5273232;28;20118;-62
2022/06/13 09:00:49;;;;;;;5.65;4.45;;;;;;;19.91;100.00;102256.03;5289317;28;20055;-62
2022/06/13 09:03:28;;;;;;;11.30;7.32;;;;;;;19.47;100.00;102258.72;5272993;28;20125;-62
2022/06/13 09:06:09;;;;;;;3.92;3.63;;;;;;;19.00;99.43;102273.72;5273054;28;20027;-62
2022/06/13 09:08:40;;;;;;;3.70;3.42;;;;;;;18.78;100.00;102276.75;5272225;28;20021;-61
2022/06/13 09:29:42;;;;;;;5.20;3.35;;;;;;;21.14;96.02;102279.31;5219593;28;20049;-60
2022/06/13 09:32:25;;;;;;;2.05;1.95;;;;;;;21.11;90.12;102284.56;5229744;28;20370;-61
2022/06/13 09:35:02;;;;;;;2.67;2.50;;;;;;;20.99;88.67;102284.19;5212353;28;20029;-59
2022/06/13 09:37:44;;;;;;;1.95;1.85;;;;;;;20.56;89.46;102298.59;5229059;28;20020;-61
2022/06/13 09:40:24;;;;;;;2.95;2.60;;;;;;;20.19;90.53;102284.63;5224037;22;20103;-60
2022/06/13 09:43:11;;;;;;;3.55;2.35;;;;;;;20.08;89.93;102297.59;5209701;28;20032;-61
2022/06/13 09:46:02;;;;;;;3.88;3.45;;;;;;;20.29;92.37;102298.25;5215430;28;20032;-61
2022/06/13 09:48:36;;;;;;;3.10;2.83;;;;;;;20.66;94.30;102297.69;5226347;28;20515;-62
2022/06/13 09:51:55;;;;;;;3.92;3.45;;;;;;;20.75;91.99;102284.97;5246061;28;20054;-60
2022/06/13 09:54:35;;;;;;;2.38;2.08;;;;;;;21.23;93.51;102296.00;5209775;28;20037;-61
2022/06/13 09:57:30;;;;;;;3.55;3.08;;;;;;;21.63;89.79;102307.63;5246917;28;20484;-62
2022/06/13 10:00:00;;;;;;;3.25;2.80;;;;;;;21.97;84.58;102297.19;5246570;28;20031;-62
2022/06/13 10:02:46;;;;;;;2.00;1.80;;;;;;;22.75;85.04;102296.50;5245705;28;20020;-61
2022/06/13 10:05:32;;;;;;;3.58;2.05;;;;;;;22.99;81.27;102298.28;5245733;28;20025;-62
2022/06/13 10:08:11;;;;;;;4.70;3.13;;;;;;;23.07;82.88;102294.84;5229398;28;20029;-62
2022/06/13 10:11:00;;;;;;;2.20;2.05;;;;;;;22.80;78.76;102298.38;5247343;28;20496;-62
2022/06/13 10:13:34;;;;;;;2.97;2.53;;;;;;;22.56;80.08;102293.78;5245651;28;20033;-61
2022/06/13 10:16:09;;;;;;;1.63;1.52;;;;;;;22.21;80.23;102313.66;5246820;28;20491;-61
2022/06/13 10:19:01;;;;;;;4.10;2.10;;;;;;;21.45;82.65;102307.28;5229532;28;20052;-62
2022/06/13 10:21:47;;;;;;;2.95;1.77;;;;;;;20.94;81.69;102322.69;5247903;28;20028;-62
2022/06/13 10:24:37;;;;;;;1.83;1.70;;;;;;;20.65;83.74;102306.22;5229442;28;20020;-62
2022/06/13 10:27:10;;;;;;;1.88;1.77;;;;;;;20.59;85.28;102307.34;5254171;22;20458;-62
2022/06/13 10:29:44;;;;;;;2.20;1.98;;;;;;;20.60;88.03;102307.06;5246072;28;20043;-62
2022/06/13 10:32:37;;;;;;;4.65;3.08;;;;;;;20.59;87.76;102318.34;5246027;28;20028;-61
2022/06/13 10:35:33;;;;;;;2.20;2.10;;;;;;;20.42;88.00;102310.53;5245271;28;20392;-62
2022/06/13 10:38:22;;;;;;;5.95;2.35;;;;;;;20.35;90.05;102312.75;5229226;28;20020;-62
2022/06/13 10:40:52;;;;;;;1.65;1.58;;;;;;;20.98;90.48;102319.06;5227969;28;20597;-61
2022/06/13 10:43:23;;;;;;;3.90;2.45;;;;;;;21.20;86.25;102318.53;5228656;28;20093;-63
2022/06/13 10:45:53;;;;;;;2.45;2.28;;;;;;;21.79;90.25;102314.53;5228623;28;20475;-62
2022/06/13 10:48:34;;;;;;;1.88;1.77;;;;;;;22.06;83.16;102314.72;5228893;28;20032;-62
2022/06/13 10:54:38;;;;;;;3.25;2.22;;;;;;;22.68;76.43;102309.84;5246775;28;20463;-62
2022/06/13 10:57:14;;;;;;;4.38;2.20;;;;;;;21.85;75.88;102313.34;5228985;28;20027;-62
2022/06/13 10:59:45;;;;;;;2.80;2.58;;;;;;;21.11;79.55;102323.03;5229247;28;20043;-62
2022/06/13 11:02:19;;;;;;;2.67;2.58;;;;;;;20.56;83.41;102322.47;5228666;28;20035;-62
2022/06/13 11:05:06;;;;;;;4.70;2.20;;;;;;;20.73;88.36;102317.41;5228095;28;20447;-62
2022/06/13 11:07:46;;;;;;;4.53;1.65;;;;;;;21.40;84.24;102320.25;5228486;28;20036;-62
2022/06/13 11:10:22;;;;;;;;;;;;;;;21.99;81.48;102308.72;5228828;28;20032;-61
2022/06/13 11:12:53;;;;;;;1.80;1.60;;;;;;;22.91;81.46;102308.06;5228135;28;20026;-63
2022/06/13 11:24:45;;;;;;;1.48;1.48;;;;;;;20.99;85.34;102320.69;5246073;28;20036;-61
2022/06/13 11:27:39;;;;;;;1.60;1.60;;;;;;;21.60;80.07;102311.78;5227673;28;20097;-61
2022/06/13 11:33:40;;;;;;;2.85;2.20;;;;;;;22.44;71.80;102315.50;5246065;28;20538;-61
2022/06/13 11:36:16;;;;;;;1.30;1.30;;;;;;;22.12;70.42;102327.28;5227875;28;20112;-62
2022/06/13 11:39:02;;;;;;;4.65;2.00;;;;;;;21.95;73.92;102320.63;5228378;28;20021;-61
2022/06/13 11:41:34;;;;;;;1.77;1.75;;;;;;;21.94;71.18;102325.31;5228190;28;20097;-60
2022/06/13 11:44:12;;;;;;;3.53;1.50;;;;;;;21.92;72.03;102319.31;5227660;28;20032;-62
2022/06/13 11:46:54;;;;;;;1.92;1.85;;;;;;;22.54;72.24;102315.28;5228039;28;20507;-60
2022/06/13 11:49:32;;;;;;;1.73;1.63;;;;;;;22.76;71.51;102297.31;5228802;28;20028;-62
2022/06/13 11:59:04;;;;;;;1.48;1.38;;;;;;;21.64;68.96;102314.75;5257796;22;20051;-60
2022/06/13 12:01:37;;;;;;;3.22;1.52;;;;;;;20.98;70.42;102329.22;5281601;28;20028;-60
2022/06/13 12:04:13;;;;;;;1.30;1.27;;;;;;;20.87;70.65;102317.53;5264452;28;20028;-61
2022/06/13 12:06:58;;;;;;;4.65;1.63;;;;;;;21.40;74.69;102325.75;5264820;28;20331;-60
2022/06/13 12:09:31;;;;;;;2.05;1.95;;;;;;;21.83;69.88;102334.81;5265158;28;20249;-60
2022/06/13 12:12:06;;;;;;;1.85;1.75;;;;;;;21.68;70.03;102307.53;5265342;28;20020;-61
2022/06/13 12:14:41;;;;;;;2.03;1.92;;;;;;;21.45;69.06;102315.50;5264278;28;20042;-61
2022/06/13 12:17:41;;;;;;;1.30;1.30;;;;;;;21.51;71.88;102317.09;5282003;28;20122;-62
2022/06/13 12:20:24;;;;;;;2.17;1.85;;;;;;;21.62;71.25;102339.78;5260401;28;20036;-61
2022/06/13 12:23:05;;;;;;;1.58;1.45;;;;;;;21.88;69.51;102310.81;5261309;28;20025;-61
2022/06/13 12:25:41;;;;;;;1.08;1.08;;;;;;;21.72;70.51;102345.13;5245417;28;20032;-60
2022/06/13 12:28:15;;;;;;;1.63;1.52;;;;;;;21.41;71.86;102327.38;5245499;28;20035;-60
2022/06/13 12:30:47;;;;;;;1.42;1.40;;;;;;;21.35;69.88;102334.91;5244010;28;20040;-60
2022/06/13 12:47:56;;;;;;;1.65;1.30;;;;;;;22.45;67.22;102344.66;1733699;22;20045;-62
2022/06/13 12:51:08;;;;;;;2.60;1.58;;;;;;;22.72;66.33;102324.66;5200650;28;20052;-61
2022/06/13 12:54:05;;;;;;;1.10;1.10;;;;;;;22.76;67.88;102331.19;5153373;28;20033;-61
2022/06/13 12:56:44;;;;;;;1.75;1.65;;;;;;;22.55;62.69;102336.22;5207361;28;20072;-61
2022/06/13 12:59:33;;;;;;;1.13;1.13;;;;;;;22.00;62.72;102304.84;5199431;28;20021;-62
2022/06/13 13:02:12;;;;;;;4.70;1.40;;;;;;;22.24;64.13;102341.38;5207720;28;20467;-59
2022/06/13 13:05:07;;;;;;;1.95;1.85;;;;;;;22.68;64.42;102334.63;5207162;28;20125;-61
2022/06/13 13:07:53;;;;;;;2.80;2.60;;;;;;;23.26;65.25;102327.78;5207321;28;20086;-60
2022/06/13 13:13:23;;;;;;;1.73;1.63;;;;;;;24.33;59.52;102312.47;5262678;28;20060;-87
2022/06/13 13:16:09;;;;;;;1.40;1.30;;;;;;;24.30;59.11;102335.19;5280933;28;20024;-88
2022/06/13 13:18:54;;;;;;;1.33;1.33;;;;;;;24.06;57.83;102352.84;5301812;28;20028;-83
2022/06/13 13:21:35;;;;;;;1.38;1.38;;;;;;;22.59;58.77;102350.19;5304849;28;20087;-83
2022/06/13 13:24:23;;;;;;;1.85;1.75;;;;;;;22.24;59.47;102346.88;5302204;28;20023;-84
2022/06/13 13:27:06;;;;;;;1.05;1.05;;;;;;;21.58;60.72;102370.91;5283697;28;20024;-83